Time;durP1;ratioP1;P1;durP2;ratioP2;P2;SDS_P1;SDS_P2;PMS_P1;PMS_P2;Temp;Humidity;BMP_temperature;BMP_pressure;BME280_temperature;BME280_humidity;BME280_pressure;Samples;Min_cycle;Max_cycle;Signal;HPM_P1;HPM_P2
2023/08/08 00:00:18;;;;;;;6.07;2.50;;;14.90;99.90;;;;;;5031626;28;20029;-70
2023/08/08 00:02:44;;;;;;;11.00;2.87;;;14.90;99.90;;;;;;5026531;28;20030;-72
2023/08/08 00:05:10;;;;;;;10.40;2.63;;;14.90;99.90;;;;;;5029416;28;20025;-70
2023/08/08 00:07:35;;;;;;;7.93;2.73;;;14.90;99.90;;;;;;5035741;28;20041;-70
2023/08/08 00:10:01;;;;;;;9.70;3.20;;;14.90;99.90;;;;;;5035060;28;20029;-80
2023/08/08 00:12:27;;;;;;;3.30;2.70;;;14.90;99.90;;;;;;5033244;28;20036;-70
2023/08/08 00:14:53;;;;;;;6.00;2.87;;;14.90;99.90;;;;;;5037109;28;20036;-70
2023/08/08 00:17:18;;;;;;;5.77;2.80;;;14.90;99.90;;;;;;5035928;28;20405;-70
2023/08/08 00:19:44;;;;;;;5.37;3.03;;;14.90;99.90;;;;;;5032878;28;20025;-71
2023/08/08 00:22:09;;;;;;;11.87;3.83;;;15.00;99.90;;;;;;5040435;28;20044;-70
2023/08/08 00:24:35;;;;;;;3.40;2.60;;;14.90;99.90;;;;;;5027109;28;20148;-71
2023/08/08 00:27:01;;;;;;;11.80;2.57;;;14.90;99.90;;;;;;5026428;28;20037;-70
2023/08/08 00:29:26;;;;;;;7.70;3.07;;;14.90;99.90;;;;;;5036811;28;20128;-71
2023/08/08 00:31:52;;;;;;;7.00;2.47;;;14.90;99.90;;;;;;5035695;28;20033;-70
2023/08/08 00:34:19;;;;;;;5.10;2.70;;;14.90;99.90;;;;;;5036780;28;20028;-70
2023/08/08 00:36:44;;;;;;;5.78;3.33;;;14.90;99.90;;;;;;5034814;28;20027;-71
2023/08/08 00:39:10;;;;;;;13.33;2.60;;;14.90;99.90;;;;;;5036820;28;20033;-70
2023/08/08 00:41:36;;;;;;;12.77;2.73;;;14.90;99.90;;;;;;5036224;28;20032;-70
2023/08/08 00:44:01;;;;;;;5.43;3.23;;;14.90;99.90;;;;;;5022716;28;20109;-70
2023/08/08 00:46:27;;;;;;;5.40;2.67;;;14.90;99.90;;;;;;5026441;28;20036;-71
2023/08/08 00:48:53;;;;;;;8.30;3.10;;;14.80;99.90;;;;;;5019778;28;20038;-70
2023/08/08 00:51:19;;;;;;;10.15;2.95;;;14.80;99.90;;;;;;5051586;28;20033;-70
2023/08/08 00:53:46;;;;;;;6.05;2.40;;;14.80;99.90;;;;;;5034192;28;20083;-83
2023/08/08 00:56:13;;;;;;;6.95;2.60;;;14.90;99.90;;;;;;5022663;28;20030;-69
2023/08/08 00:58:40;;;;;;;9.00;2.53;;;14.90;99.90;;;;;;5029542;28;20026;-80
2023/08/08 01:01:06;;;;;;;5.43;2.42;;;14.90;99.90;;;;;;5027594;28;20112;-70
2023/08/08 01:03:32;;;;;;;7.82;2.58;;;14.90;99.90;;;;;;5035566;28;20029;-70
2023/08/08 01:06:01;;;;;;;7.67;1.97;;;14.90;99.90;;;;;;5032214;28;20033;-70
2023/08/08 01:08:36;;;;;;;5.78;2.40;;;14.90;99.90;;;;;;5024637;28;20041;-69
2023/08/08 01:11:03;;;;;;;11.65;3.30;;;14.90;99.90;;;;;;5033456;28;20412;-69
2023/08/08 01:13:31;;;;;;;5.10;2.35;;;14.90;99.90;;;;;;5025792;28;20312;-70
2023/08/08 01:15:57;;;;;;;13.98;2.00;;;14.90;99.90;;;;;;5031782;28;20030;-69
2023/08/08 01:18:24;;;;;;;8.88;2.63;;;14.90;99.90;;;;;;5051119;28;20328;-76
2023/08/08 01:20:50;;;;;;;;;;;14.90;99.90;;;;;;5034324;28;20182;-69
2023/08/08 01:23:28;;;;;;;3.65;2.25;;;14.90;99.90;;;;;;5035373;28;19912;-69
2023/08/08 01:25:55;;;;;;;7.60;2.25;;;14.90;99.90;;;;;;5026951;28;20029;-70
2023/08/08 01:28:22;;;;;;;10.30;2.40;;;15.00;99.90;;;;;;5032845;28;20171;-70
2023/08/08 01:30:48;;;;;;;;;;;14.90;99.90;;;;;;5034220;28;20106;-70
2023/08/08 01:33:14;;;;;;;4.55;2.10;;;14.90;99.90;;;;;;5034868;28;19955;-78
2023/08/08 01:35:47;;;;;;;6.18;2.63;;;14.90;99.90;;;;;;5032903;28;20036;-70
2023/08/08 01:38:34;;;;;;;8.20;2.85;;;14.90;99.90;;;;;;5017319;28;20033;-70
2023/08/08 01:41:01;;;;;;;6.72;2.78;;;14.90;99.90;;;;;;5036401;28;20045;-70
2023/08/08 01:43:27;;;;;;;7.75;2.70;;;14.90;99.90;;;;;;5030677;28;20025;-69
2023/08/08 01:45:54;;;;;;;4.95;2.13;;;14.90;99.90;;;;;;5033358;28;20040;-69
2023/08/08 01:48:19;;;;;;;5.38;2.40;;;14.90;99.90;;;;;;5038754;28;20044;-70
2023/08/08 01:50:45;;;;;;;11.93;3.23;;;14.90;99.90;;;;;;5031166;28;20030;-69
2023/08/08 01:53:11;;;;;;;4.50;2.67;;;14.90;99.90;;;;;;5022290;28;20022;-83
2023/08/08 01:55:37;;;;;;;9.57;2.10;;;14.90;99.90;;;;;;5028075;28;20096;-81
2023/08/08 01:58:03;;;;;;;3.30;2.30;;;14.90;99.90;;;;;;5050985;28;20424;-80
2023/08/08 02:00:28;;;;;;;4.23;2.20;;;14.80;99.90;;;;;;5042127;28;20034;-69
2023/08/08 02:02:54;;;;;;;7.07;2.73;;;14.80;99.90;;;;;;5045266;28;20033;-70
2023/08/08 02:05:20;;;;;;;3.30;2.13;;;14.80;99.90;;;;;;5036148;28;20037;-84
2023/08/08 02:07:45;;;;;;;7.30;2.03;;;14.70;99.90;;;;;;5026515;28;20083;-70
2023/08/08 02:10:11;;;;;;;7.03;2.17;;;14.70;99.90;;;;;;5039232;28;20226;-69
2023/08/08 02:12:37;;;;;;;3.50;1.77;;;14.70;99.90;;;;;;5047780;28;20071;-79
2023/08/08 02:15:04;;;;;;;7.50;1.90;;;14.60;99.90;;;;;;5050243;28;20064;-70
2023/08/08 02:17:30;;;;;;;4.68;1.98;;;14.60;99.90;;;;;;5045537;28;20476;-70
2023/08/08 02:19:55;;;;;;;3.97;2.20;;;14.60;99.90;;;;;;5037381;28;20026;-70
2023/08/08 02:22:22;;;;;;;5.23;2.23;;;14.50;99.90;;;;;;5024996;28;20038;-70
2023/08/08 02:24:48;;;;;;;;;;;14.50;99.90;;;;;;5027462;28;20417;-70
2023/08/08 02:27:14;;;;;;;4.63;1.77;;;14.50;99.90;;;;;;5027253;28;19909;-70
2023/08/08 02:29:40;;;;;;;3.83;1.77;;;14.40;99.90;;;;;;5014969;28;20283;-82
2023/08/08 02:32:06;;;;;;;2.40;1.67;;;14.40;99.90;;;;;;5033346;28;20099;-70
2023/08/08 02:34:32;;;;;;;5.65;1.50;;;14.40;99.90;;;;;;5033558;28;20060;-69
2023/08/08 02:36:57;;;;;;;5.03;1.67;;;14.30;99.90;;;;;;5030968;28;20080;-69
2023/08/08 02:39:23;;;;;;;4.73;1.60;;;14.30;99.90;;;;;;5034572;28;20034;-76
2023/08/08 02:41:49;;;;;;;6.00;1.93;;;14.30;99.90;;;;;;5033944;28;20112;-70
2023/08/08 02:44:14;;;;;;;3.80;1.63;;;14.30;99.90;;;;;;5034547;28;20029;-69
2023/08/08 02:46:40;;;;;;;4.07;2.00;;;14.20;99.90;;;;;;5031996;28;20037;-69
2023/08/08 02:49:06;;;;;;;2.37;1.30;;;14.20;99.90;;;;;;5034018;28;20025;-71
2023/08/08 02:51:31;;;;;;;4.87;1.50;;;14.20;99.90;;;;;;5026428;28;20346;-70
2023/08/08 02:53:57;;;;;;;3.17;1.60;;;14.20;99.90;;;;;;5030608;28;20033;-69
2023/08/08 02:56:23;;;;;;;4.83;1.20;;;14.20;99.90;;;;;;5022983;28;20036;-80
2023/08/08 02:58:48;;;;;;;3.00;1.43;;;14.10;99.90;;;;;;5035444;28;20021;-70
2023/08/08 03:01:15;;;;;;;6.97;1.40;;;14.10;99.90;;;;;;5034163;28;20084;-70
2023/08/08 03:03:41;;;;;;;;;;;14.10;99.90;;;;;;5033931;28;20080;-81
2023/08/08 03:06:07;;;;;;;9.07;1.40;;;14.10;99.90;;;;;;5034085;28;20266;-70
2023/08/08 03:08:33;;;;;;;3.47;1.20;;;14.10;99.90;;;;;;5033263;28;20029;-70
2023/08/08 03:10:58;;;;;;;5.23;1.20;;;14.10;99.90;;;;;;5034004;28;20026;-69
2023/08/08 03:13:24;;;;;;;3.70;1.40;;;14.10;99.90;;;;;;5018875;28;20025;-69
2023/08/08 03:15:50;;;;;;;1.80;1.20;;;14.10;99.90;;;;;;5020722;28;20397;-70
2023/08/08 03:18:15;;;;;;;2.17;1.43;;;14.10;99.90;;;;;;5027253;28;20471;-69
2023/08/08 03:20:41;;;;;;;4.43;1.83;;;14.10;99.90;;;;;;5030033;28;20026;-70
2023/08/08 03:23:07;;;;;;;2.23;1.40;;;14.10;99.90;;;;;;5036935;28;20044;-70
2023/08/08 03:25:32;;;;;;;2.00;1.23;;;14.10;99.90;;;;;;5021001;28;20281;-70
2023/08/08 03:27:58;;;;;;;3.80;1.40;;;14.00;99.90;;;;;;5023536;28;20026;-70
2023/08/08 03:30:24;;;;;;;5.90;1.73;;;14.00;99.90;;;;;;5032632;28;20423;-70
2023/08/08 03:32:49;;;;;;;4.03;1.30;;;13.90;99.90;;;;;;5053152;28;20084;-71
2023/08/08 03:35:15;;;;;;;5.13;1.23;;;13.90;99.90;;;;;;5037542;28;20090;-69
2023/08/08 03:37:42;;;;;;;3.27;1.33;;;13.80;99.90;;;;;;5023956;28;20049;-70
2023/08/08 03:40:08;;;;;;;2.30;1.08;;;13.80;99.90;;;;;;5036504;28;20029;-81
2023/08/08 03:42:33;;;;;;;2.27;1.30;;;13.80;99.90;;;;;;5035225;28;20044;-70
2023/08/08 03:44:59;;;;;;;2.57;1.30;;;13.80;99.90;;;;;;5038034;28;20030;-69
2023/08/08 03:47:26;;;;;;;3.57;1.67;;;13.70;99.90;;;;;;5022618;28;20030;-69
2023/08/08 03:49:55;;;;;;;1.85;1.33;;;13.60;99.90;;;;;;5026507;28;20616;-70
2023/08/08 03:52:21;;;;;;;7.72;1.50;;;13.60;99.90;;;;;;5035787;28;20430;-70
2023/08/08 03:54:46;;;;;;;6.32;1.10;;;13.60;99.90;;;;;;5036354;28;20017;-70
2023/08/08 03:57:13;;;;;;;4.70;1.27;;;13.60;99.90;;;;;;5023434;28;20325;-80
2023/08/08 03:59:39;;;;;;;2.67;1.00;;;13.50;99.90;;;;;;5030303;28;20064;-70
2023/08/08 04:02:04;;;;;;;3.47;1.20;;;13.50;99.90;;;;;;5036682;28;20134;-70
2023/08/08 04:04:30;;;;;;;6.47;1.27;;;13.40;99.90;;;;;;5036685;28;20029;-70
2023/08/08 04:06:56;;;;;;;6.00;1.27;;;13.40;99.90;;;;;;5032072;28;20057;-71
2023/08/08 04:09:22;;;;;;;2.30;0.90;;;13.40;99.90;;;;;;5037098;28;20026;-70
2023/08/08 04:11:47;;;;;;;7.27;1.70;;;13.40;99.90;;;;;;5036327;28;20029;-70
2023/08/08 04:14:13;;;;;;;3.43;0.90;;;13.30;99.90;;;;;;5029858;28;20026;-80
2023/08/08 04:16:39;;;;;;;7.17;1.27;;;13.30;99.90;;;;;;5032249;28;20025;-70
2023/08/08 04:19:05;;;;;;;6.90;0.95;;;13.30;99.90;;;;;;5037814;28;20020;-70
2023/08/08 04:21:32;;;;;;;8.20;1.50;;;13.30;99.90;;;;;;5037379;28;20108;-71
2023/08/08 04:23:59;;;;;;;2.10;0.98;;;13.30;99.90;;;;;;5033058;28;20021;-70
2023/08/08 04:26:24;;;;;;;;;;;13.30;99.90;;;;;;5035825;28;20052;-71
2023/08/08 04:28:50;;;;;;;3.27;1.30;;;13.30;99.90;;;;;;5021129;28;19909;-70
2023/08/08 04:31:15;;;;;;;11.13;1.20;;;13.30;99.90;;;;;;5027877;28;20025;-70
2023/08/08 04:33:41;;;;;;;0.87;0.50;;;13.30;99.90;;;;;;5033946;28;20037;-71
2023/08/08 04:36:07;;;;;;;1.23;0.80;;;13.30;99.90;;;;;;5036867;28;20324;-70
2023/08/08 04:38:32;;;;;;;3.13;1.00;;;13.30;99.90;;;;;;5036138;28;20034;-70
2023/08/08 04:40:59;;;;;;;0.77;0.63;;;13.40;99.90;;;;;;5028667;28;20108;-69
2023/08/08 04:43:24;;;;;;;6.07;1.08;;;13.40;99.90;;;;;;5036270;28;20025;-71
2023/08/08 04:45:51;;;;;;;5.67;1.30;;;13.30;99.90;;;;;;5022735;28;20103;-70
2023/08/08 04:48:16;;;;;;;3.97;0.90;;;13.30;99.90;;;;;;5036334;28;20052;-81
2023/08/08 04:50:42;;;;;;;2.03;0.80;;;13.30;99.90;;;;;;5031395;28;20417;-70
2023/08/08 04:53:08;;;;;;;1.17;0.80;;;13.30;99.90;;;;;;5028674;28;20431;-70
2023/08/08 04:55:33;;;;;;;4.07;0.80;;;13.30;99.90;;;;;;5048467;28;20026;-70
2023/08/08 04:57:59;;;;;;;3.97;0.90;;;13.30;99.90;;;;;;5027195;28;20116;-81
2023/08/08 05:00:26;;;;;;;2.60;0.77;;;13.30;99.90;;;;;;5041295;28;20107;-70
2023/08/08 05:02:52;;;;;;;0.90;0.85;;;13.30;99.90;;;;;;5020429;28;20421;-70
2023/08/08 05:05:18;;;;;;;1.10;0.80;;;13.40;99.90;;;;;;5043858;28;20116;-70
2023/08/08 05:07:43;;;;;;;1.47;0.70;;;13.40;99.90;;;;;;5027542;28;20421;-74
2023/08/08 05:10:09;;;;;;;7.10;1.00;;;13.40;99.90;;;;;;5030575;28;20305;-70
2023/08/08 05:12:35;;;;;;;3.30;0.80;;;13.40;99.90;;;;;;5026473;28;20408;-70
2023/08/08 05:15:01;;;;;;;3.37;1.00;;;13.40;99.90;;;;;;5033188;28;20114;-70
2023/08/08 05:17:26;;;;;;;4.50;1.27;;;13.40;99.90;;;;;;5031601;28;20097;-71
2023/08/08 05:19:52;;;;;;;2.30;1.20;;;13.40;99.90;;;;;;5019064;28;20022;-71
2023/08/08 05:22:18;;;;;;;2.90;0.87;;;13.40;99.90;;;;;;5036778;28;20025;-70
2023/08/08 05:24:43;;;;;;;5.23;1.40;;;13.40;99.90;;;;;;5029656;28;20354;-73
2023/08/08 05:27:10;;;;;;;1.40;0.70;;;13.50;99.90;;;;;;5037869;28;20087;-71
2023/08/08 05:29:38;;;;;;;3.72;1.25;;;13.50;99.90;;;;;;5040911;28;20091;-70
2023/08/08 05:32:06;;;;;;;2.95;0.88;;;13.50;99.90;;;;;;5029073;28;20061;-70
2023/08/08 05:34:32;;;;;;;2.25;0.95;;;13.50;99.90;;;;;;5030697;28;20017;-70
2023/08/08 05:36:58;;;;;;;3.00;1.02;;;13.50;99.90;;;;;;5033239;28;20105;-70
2023/08/08 05:39:24;;;;;;;4.93;1.00;;;13.60;99.90;;;;;;5031796;28;20395;-71
2023/08/08 05:41:50;;;;;;;2.33;0.80;;;13.60;99.90;;;;;;5025186;28;20676;-70
2023/08/08 05:44:15;;;;;;;2.50;1.10;;;13.70;99.90;;;;;;5032085;28;20040;-70
2023/08/08 05:46:41;;;;;;;1.87;0.73;;;13.70;99.90;;;;;;5027141;28;20053;-70
2023/08/08 05:49:07;;;;;;;2.47;0.63;;;13.80;99.90;;;;;;5025166;28;20435;-70
2023/08/08 05:51:32;;;;;;;1.57;1.00;;;13.80;99.90;;;;;;5024974;28;20362;-71
2023/08/08 05:53:58;;;;;;;13.03;1.30;;;13.90;99.90;;;;;;5037966;28;20447;-71
2023/08/08 05:56:24;;;;;;;5.03;1.03;;;13.90;99.90;;;;;;5033746;28;20022;-71
2023/08/08 05:58:49;;;;;;;2.97;0.93;;;14.00;99.90;;;;;;5024656;28;20034;-70
2023/08/08 06:01:15;;;;;;;1.40;1.07;;;14.00;99.90;;;;;;5029404;28;20108;-71
2023/08/08 06:03:42;;;;;;;3.77;1.13;;;14.00;99.90;;;;;;5032820;28;20022;-70
2023/08/08 06:06:08;;;;;;;3.58;0.88;;;14.20;99.90;;;;;;5027133;28;20025;-71
2023/08/08 06:08:33;;;;;;;2.63;0.80;;;14.20;99.90;;;;;;5029314;28;20034;-71
2023/08/08 06:10:59;;;;;;;1.33;0.77;;;14.20;99.90;;;;;;5022162;28;20444;-71
2023/08/08 06:13:25;;;;;;;3.93;1.00;;;14.30;99.90;;;;;;5026939;28;20022;-73
2023/08/08 06:15:50;;;;;;;3.17;1.00;;;14.30;99.90;;;;;;5030641;28;20033;-72
2023/08/08 06:18:17;;;;;;;3.93;1.53;;;14.40;99.90;;;;;;5024713;28;20029;-73
2023/08/08 06:20:43;;;;;;;;;;;14.50;99.90;;;;;;5020666;28;20329;-71
2023/08/08 06:23:08;;;;;;;3.33;0.30;;;14.60;99.90;;;;;;5031528;28;19909;-83
2023/08/08 06:25:34;;;;;;;5.33;0.77;;;14.60;99.90;;;;;;5032266;28;20033;-73
2023/08/08 06:28:00;;;;;;;3.63;1.50;;;14.70;99.90;;;;;;5033530;28;20033;-72
2023/08/08 06:30:25;;;;;;;1.17;0.60;;;14.70;99.90;;;;;;5040529;28;20151;-72
2023/08/08 06:32:51;;;;;;;4.73;0.63;;;14.80;99.90;;;;;;5027094;28;20046;-70
2023/08/08 06:35:16;;;;;;;5.10;0.43;;;14.90;99.90;;;;;;5025998;28;20119;-71
2023/08/08 06:37:43;;;;;;;3.17;0.80;;;15.00;99.90;;;;;;5038105;28;20037;-71
2023/08/08 06:40:10;;;;;;;1.85;0.70;;;15.00;99.90;;;;;;5037203;28;20030;-71
2023/08/08 06:42:36;;;;;;;2.15;0.75;;;15.10;99.90;;;;;;5039250;28;20021;-72
2023/08/08 06:45:02;;;;;;;1.57;0.83;;;15.20;99.90;;;;;;5049354;28;20039;-72
2023/08/08 06:47:28;;;;;;;1.47;0.50;;;15.30;99.90;;;;;;5048323;28;20033;-70
2023/08/08 06:49:53;;;;;;;5.03;0.60;;;15.30;99.90;;;;;;5037797;28;20045;-71
2023/08/08 06:52:21;;;;;;;8.18;1.05;;;15.40;99.90;;;;;;5031094;28;20029;-72
2023/08/08 06:54:47;;;;;;;3.33;0.70;;;15.40;99.90;;;;;;5029468;28;20421;-71
2023/08/08 06:57:12;;;;;;;6.73;1.20;;;15.60;99.90;;;;;;5042191;28;20108;-71
2023/08/08 06:59:38;;;;;;;2.50;0.50;;;15.60;99.90;;;;;;5046056;28;20025;-82
2023/08/08 07:02:04;;;;;;;5.10;0.67;;;15.70;99.90;;;;;;5065107;28;20116;-72
2023/08/08 07:04:29;;;;;;;3.00;0.40;;;15.70;99.90;;;;;;5033762;28;20033;-71
2023/08/08 07:06:55;;;;;;;2.53;0.50;;;15.90;99.90;;;;;;5022303;28;20026;-71
2023/08/08 07:09:21;;;;;;;8.40;0.60;;;15.90;99.90;;;;;;5047276;28;20061;-71
2023/08/08 07:11:47;;;;;;;6.72;0.65;;;16.00;99.90;;;;;;5038920;28;20096;-70
2023/08/08 07:14:13;;;;;;;7.70;0.90;;;16.00;99.90;;;;;;5046034;28;20459;-72
2023/08/08 07:16:39;;;;;;;4.50;0.90;;;16.10;99.90;;;;;;5053184;28;20290;-80
2023/08/08 07:19:05;;;;;;;3.43;0.50;;;16.30;99.90;;;;;;5028745;28;20029;-71
2023/08/08 07:21:31;;;;;;;1.70;0.60;;;16.40;99.90;;;;;;5027306;28;20259;-72
2023/08/08 07:23:57;;;;;;;1.43;0.73;;;16.50;99.90;;;;;;5027129;28;20409;-71
2023/08/08 07:26:23;;;;;;;1.90;0.60;;;16.50;99.90;;;;;;5029143;28;20034;-71
2023/08/08 07:28:48;;;;;;;2.30;0.70;;;16.60;99.90;;;;;;5020607;28;20020;-70
2023/08/08 07:31:14;;;;;;;3.23;1.20;;;16.60;99.90;;;;;;5042350;28;20028;-71
2023/08/08 07:33:40;;;;;;;2.23;0.80;;;16.80;99.90;;;;;;5042215;28;20341;-72
2023/08/08 07:36:05;;;;;;;7.60;0.80;;;16.80;99.90;;;;;;5032715;28;21745;-71
2023/08/08 07:38:33;;;;;;;6.57;0.70;;;16.90;99.90;;;;;;5057846;28;20025;-72
2023/08/08 07:40:58;;;;;;;4.13;0.80;;;17.10;99.90;;;;;;5028125;28;20345;-71
2023/08/08 07:43:24;;;;;;;2.67;0.53;;;17.20;99.90;;;;;;5040210;28;20026;-71
2023/08/08 07:45:49;;;;;;;4.27;0.80;;;17.20;99.90;;;;;;5029760;28;20033;-71
2023/08/08 07:48:15;;;;;;;1.73;0.47;;;17.20;99.90;;;;;;5038216;28;20030;-70
2023/08/08 07:50:41;;;;;;;2.70;0.53;;;17.30;99.90;;;;;;5038306;28;20033;-71
2023/08/08 07:53:07;;;;;;;6.97;0.80;;;17.40;99.90;;;;;;5036326;28;20025;-71
2023/08/08 07:55:32;;;;;;;1.80;0.47;;;17.60;99.90;;;;;;5049782;28;20353;-71
2023/08/08 07:57:58;;;;;;;2.40;0.53;;;17.70;99.90;;;;;;5039343;28;20083;-73
2023/08/08 08:00:24;;;;;;;5.30;0.80;;;17.80;99.90;;;;;;5035540;28;20025;-72
2023/08/08 08:02:49;;;;;;;2.90;0.60;;;18.00;99.90;;;;;;5036711;28;20028;-72
2023/08/08 08:05:15;;;;;;;1.03;0.77;;;17.90;99.90;;;;;;5044691;28;20464;-72
2023/08/08 08:07:41;;;;;;;0.70;0.53;;;18.00;99.90;;;;;;5050243;28;20025;-69
2023/08/08 08:10:09;;;;;;;2.50;0.50;;;18.10;99.90;;;;;;5043515;28;20035;-70
2023/08/08 08:12:35;;;;;;;2.75;0.70;;;18.20;99.90;;;;;;5041504;28;20032;-72
2023/08/08 08:15:02;;;;;;;2.75;0.77;;;18.30;99.90;;;;;;5041562;28;20010;-71
2023/08/08 08:17:28;;;;;;;4.70;0.50;;;18.30;99.90;;;;;;5024062;28;20057;-71
2023/08/08 08:19:54;;;;;;;1.83;0.40;;;18.20;99.90;;;;;;5038631;28;20033;-71
2023/08/08 08:22:19;;;;;;;0.95;0.50;;;18.20;99.90;;;;;;5043736;28;20045;-71
2023/08/08 08:24:45;;;;;;;1.83;0.70;;;18.20;99.90;;;;;;5035103;28;20319;-70
2023/08/08 08:27:12;;;;;;;0.32;0.32;;;18.20;99.90;;;;;;5025291;28;20041;-70
2023/08/08 08:29:37;;;;;;;2.67;0.90;;;18.20;99.90;;;;;;5023692;28;20040;-71
2023/08/08 08:32:04;;;;;;;11.30;0.70;;;18.30;99.90;;;;;;5034187;28;20042;-70
2023/08/08 08:34:30;;;;;;;0.57;0.40;;;18.50;99.90;;;;;;5038973;28;20725;-72
2023/08/08 08:36:55;;;;;;;1.50;0.47;;;18.60;99.90;;;;;;5040094;28;20097;-71
2023/08/08 08:39:21;;;;;;;1.60;0.87;;;18.70;99.90;;;;;;5038575;28;20036;-71
2023/08/08 08:41:51;;;;;;;3.13;0.60;;;18.60;99.90;;;;;;5049440;28;20033;-71
2023/08/08 08:44:17;;;;;;;2.10;0.40;;;18.70;99.90;;;;;;5036063;28;20021;-70
2023/08/08 08:46:48;;;;;;;1.50;0.43;;;18.70;99.90;;;;;;5033146;28;20095;-79
2023/08/08 08:49:14;;;;;;;1.00;0.50;;;18.70;99.90;;;;;;5034443;28;20040;-70
2023/08/08 08:51:40;;;;;;;3.67;0.70;;;18.60;99.90;;;;;;5033113;28;20508;-70
2023/08/08 08:54:06;;;;;;;3.17;0.73;;;18.70;99.90;;;;;;5042565;28;20111;-71
2023/08/08 08:56:32;;;;;;;1.35;0.57;;;18.60;99.90;;;;;;5024252;28;20029;-71
2023/08/08 08:58:59;;;;;;;3.58;0.47;;;18.70;99.90;;;;;;5020609;28;20026;-71
2023/08/08 09:01:24;;;;;;;;;;;18.70;99.90;;;;;;5041138;28;20496;-70
2023/08/08 09:03:50;;;;;;;1.37;0.43;;;18.80;99.90;;;;;;5024330;28;20000;-72
2023/08/08 09:06:18;;;;;;;0.47;0.40;;;18.80;99.90;;;;;;5032442;28;20328;-72
2023/08/08 09:08:45;;;;;;;1.67;0.52;;;18.60;99.90;;;;;;5032420;28;20030;-71
2023/08/08 09:11:10;;;;;;;0.88;0.52;;;18.40;99.90;;;;;;5022405;28;20056;-71
2023/08/08 09:13:38;;;;;;;1.87;0.37;;;18.30;99.90;;;;;;5037121;28;20053;-71
2023/08/08 09:16:08;;;;;;;0.55;0.32;;;18.40;99.90;;;;;;5036460;28;20358;-71
2023/08/08 09:18:38;;;;;;;0.63;0.32;;;18.50;99.90;;;;;;5031828;28;20028;-72
2023/08/08 09:21:06;;;;;;;6.18;1.02;;;18.60;99.90;;;;;;5039034;28;20341;-71
2023/08/08 09:23:32;;;;;;;0.50;0.50;;;18.70;99.90;;;;;;5041697;28;20028;-78
2023/08/08 09:25:58;;;;;;;1.80;0.60;;;18.70;99.90;;;;;;5034757;28;20037;-71
2023/08/08 09:28:24;;;;;;;2.70;0.73;;;18.70;99.90;;;;;;5032069;28;20060;-71
2023/08/08 09:30:50;;;;;;;0.83;0.43;;;18.70;99.90;;;;;;5025073;28;20057;-82
2023/08/08 09:33:18;;;;;;;0.50;0.50;;;18.70;99.90;;;;;;5032343;28;20033;-72
2023/08/08 09:35:45;;;;;;;2.75;0.40;;;18.60;99.90;;;;;;5020743;28;20098;-71
2023/08/08 09:38:11;;;;;;;1.13;0.80;;;18.70;99.90;;;;;;5026183;28;20409;-77
2023/08/08 09:40:36;;;;;;;2.90;0.77;;;18.90;99.90;;;;;;5040083;28;20029;-71
2023/08/08 09:43:02;;;;;;;0.40;0.40;;;18.90;99.90;;;;;;5034006;28;20315;-78
2023/08/08 09:45:36;;;;;;;0.90;0.60;;;19.00;99.90;;;;;;5036165;28;20039;-81
2023/08/08 09:48:03;;;;;;;1.77;0.65;;;19.30;99.90;;;;;;5025217;28;20376;-71
2023/08/08 09:50:29;;;;;;;0.88;0.40;;;19.40;99.90;;;;;;5023468;28;20428;-73
2023/08/08 09:52:55;;;;;;;2.30;0.80;;;19.50;99.90;;;;;;5048545;28;20333;-72
2023/08/08 09:55:23;;;;;;;0.85;0.50;;;19.30;99.90;;;;;;5025800;28;20033;-70
2023/08/08 09:57:49;;;;;;;1.95;0.93;;;19.00;99.90;;;;;;5034407;28;20041;-70
2023/08/08 10:00:15;;;;;;;3.22;0.55;;;18.90;99.90;;;;;;5028495;28;20029;-70
2023/08/08 10:02:44;;;;;;;0.95;0.45;;;18.80;99.90;;;;;;5044324;28;20033;-77
2023/08/08 10:05:12;;;;;;;3.05;0.50;;;18.90;99.90;;;;;;5051452;28;20021;-71
2023/08/08 10:07:39;;;;;;;2.30;0.40;;;19.00;99.90;;;;;;5024520;28;20409;-70
2023/08/08 10:10:08;;;;;;;3.28;0.50;;;19.20;99.90;;;;;;5035584;28;20298;-71
2023/08/08 10:12:33;;;;;;;0.70;0.45;;;19.30;99.90;;;;;;5018862;28;20026;-70
2023/08/08 10:15:00;;;;;;;1.60;0.43;;;19.20;99.90;;;;;;5026988;28;20044;-68
2023/08/08 10:17:25;;;;;;;2.90;0.70;;;19.10;99.90;;;;;;5037790;28;20068;-73
2023/08/08 10:19:54;;;;;;;5.17;0.70;;;19.00;99.90;;;;;;5036793;28;20061;-70
2023/08/08 10:22:25;;;;;;;1.38;0.70;;;18.80;99.90;;;;;;5049664;28;20108;-71
2023/08/08 10:24:53;;;;;;;4.20;0.60;;;19.00;99.90;;;;;;5019846;28;20337;-71
2023/08/08 10:27:35;;;;;;;2.75;0.50;;;19.10;99.90;;;;;;5046359;28;20049;-71
2023/08/08 10:30:10;;;;;;;2.85;0.77;;;19.20;99.90;;;;;;5034612;28;20021;-70
2023/08/08 10:32:43;;;;;;;6.30;0.90;;;19.30;99.90;;;;;;5035247;28;20053;-71
2023/08/08 10:35:11;;;;;;;2.92;0.47;;;19.40;99.90;;;;;;5040450;28;20420;-70
2023/08/08 10:37:37;;;;;;;1.50;0.60;;;19.50;99.90;;;;;;5042166;28;20111;-72
2023/08/08 10:40:11;;;;;;;3.03;0.73;;;19.60;99.90;;;;;;5040074;28;20354;-70
2023/08/08 10:42:44;;;;;;;3.10;0.70;;;19.70;99.90;;;;;;5033715;28;20036;-71
2023/08/08 10:45:14;;;;;;;2.28;0.60;;;19.80;99.90;;;;;;5022693;28;20061;-71
2023/08/08 10:47:40;;;;;;;0.65;0.55;;;19.70;99.90;;;;;;5031758;28;20081;-70
2023/08/08 10:50:21;;;;;;;2.05;0.47;;;19.60;99.90;;;;;;5033019;28;20164;-72
2023/08/08 10:52:52;;;;;;;3.15;0.80;;;19.50;99.90;;;;;;5031817;28;20344;-70
2023/08/08 10:55:27;;;;;;;2.33;0.88;;;19.50;99.90;;;;;;5038826;28;20408;-70
2023/08/08 10:58:08;;;;;;;3.42;0.80;;;19.70;99.90;;;;;;5027821;28;20034;-83
2023/08/08 11:00:36;;;;;;;6.45;1.05;;;19.80;99.90;;;;;;5024816;28;20022;-70
2023/08/08 11:03:06;;;;;;;1.25;0.47;;;19.80;99.90;;;;;;5027771;28;20118;-70
2023/08/08 11:05:35;;;;;;;2.05;0.65;;;19.80;99.90;;;;;;5026772;28;20021;-72
2023/08/08 11:08:03;;;;;;;1.23;0.50;;;19.70;99.90;;;;;;5038482;28;20064;-70
2023/08/08 11:10:33;;;;;;;3.03;0.65;;;19.70;99.90;;;;;;5017687;28;20030;-69
2023/08/08 11:13:05;;;;;;;0.47;0.47;;;19.60;99.90;;;;;;5020126;28;20033;-71
2023/08/08 11:15:34;;;;;;;1.23;0.70;;;19.60;99.90;;;;;;5022043;28;20025;-81
2023/08/08 11:18:01;;;;;;;2.50;0.60;;;19.60;99.90;;;;;;5023718;28;20036;-71
2023/08/08 11:20:36;;;;;;;1.98;0.73;;;19.60;99.90;;;;;;5030210;28;20024;-71
2023/08/08 11:23:03;;;;;;;3.80;0.45;;;19.60;99.90;;;;;;5039895;28;20018;-71
2023/08/08 11:25:30;;;;;;;2.38;0.47;;;19.30;99.90;;;;;;5030672;28;20044;-71
2023/08/08 11:27:56;;;;;;;;;;;19.30;99.90;;;;;;5023883;28;20117;-71
2023/08/08 11:30:23;;;;;;;1.55;0.70;;;19.10;99.90;;;;;;5031486;28;19912;-71
2023/08/08 11:32:49;;;;;;;;;;;19.00;99.90;;;;;;5023677;28;20100;-71
2023/08/08 11:35:22;;;;;;;2.55;0.63;;;19.10;99.90;;;;;;5034762;28;19913;-71
2023/08/08 11:37:48;;;;;;;0.98;0.60;;;19.10;99.90;;;;;;5040698;28;20320;-70
2023/08/08 11:40:15;;;;;;;1.13;0.70;;;19.20;99.90;;;;;;5045936;28;20042;-74
2023/08/08 11:42:41;;;;;;;0.60;0.52;;;19.20;99.90;;;;;;5034922;28;20155;-81
2023/08/08 11:45:09;;;;;;;1.13;0.55;;;19.20;99.90;;;;;;5025038;28;20033;-71
2023/08/08 11:47:36;;;;;;;4.95;0.35;;;19.10;99.90;;;;;;5029247;28;20030;-70
2023/08/08 11:50:09;;;;;;;1.48;0.68;;;19.30;99.90;;;;;;5039769;28;20049;-72
2023/08/08 11:52:45;;;;;;;1.33;0.55;;;19.40;99.90;;;;;;5061644;28;20420;-71
2023/08/08 11:55:12;;;;;;;2.88;0.63;;;19.20;99.90;;;;;;5022301;28;20026;-72
2023/08/08 11:57:38;;;;;;;;;;;19.20;99.90;;;;;;5029281;28;20030;-72
2023/08/08 12:00:12;;;;;;;2.80;0.80;;;19.10;99.90;;;;;;5047756;28;19932;-71
2023/08/08 12:02:39;;;;;;;2.30;0.60;;;19.30;99.90;;;;;;5031211;28;20436;-71
2023/08/08 12:05:09;;;;;;;;;;;19.70;99.90;;;;;;5029904;28;20041;-70
2023/08/08 12:07:35;;;;;;;2.75;0.75;;;20.10;99.90;;;;;;5042946;28;20215;-71
2023/08/08 12:10:04;;;;;;;0.80;0.63;;;20.30;99.90;;;;;;5028541;28;20636;-79
2023/08/08 12:12:34;;;;;;;2.92;0.55;;;20.40;99.90;;;;;;5041977;28;20066;-71
2023/08/08 12:15:04;;;;;;;2.20;0.60;;;20.30;99.90;;;;;;5036214;28;20075;-70
2023/08/08 12:17:30;;;;;;;1.35;0.50;;;20.10;99.90;;;;;;5033167;28;20032;-71
2023/08/08 12:19:58;;;;;;;;;;;20.00;99.90;;;;;;5042607;28;20034;-70
2023/08/08 12:22:24;;;;;;;2.17;0.43;;;19.80;99.90;;;;;;5046514;28;20283;-71
2023/08/08 12:24:50;;;;;;;4.00;0.73;;;19.90;99.90;;;;;;5038318;28;20036;-71
2023/08/08 12:27:15;;;;;;;11.90;1.10;;;19.90;99.90;;;;;;5033904;28;20470;-71
2023/08/08 12:29:41;;;;;;;2.00;0.70;;;19.70;99.90;;;;;;5039130;28;20029;-71
2023/08/08 12:32:08;;;;;;;2.93;0.60;;;19.50;99.90;;;;;;5027229;28;20077;-72
2023/08/08 12:34:34;;;;;;;0.77;0.35;;;19.30;99.90;;;;;;5046130;28;20033;-79
2023/08/08 12:37:00;;;;;;;1.08;0.32;;;19.20;99.90;;;;;;5034192;28;20040;-70
2023/08/08 12:39:26;;;;;;;0.43;0.43;;;19.00;99.90;;;;;;5036788;28;20025;-70
2023/08/08 12:41:51;;;;;;;1.13;0.57;;;18.90;99.90;;;;;;5039296;28;20097;-71
2023/08/08 12:44:17;;;;;;;0.80;0.60;;;19.00;99.90;;;;;;5030336;28;20029;-70
2023/08/08 12:46:43;;;;;;;3.97;0.50;;;19.00;99.90;;;;;;5052208;28;20025;-71